Time;durP1;ratioP1;P1;durP2;ratioP2;P2;SDS_P1;SDS_P2;PMS_P1;PMS_P2;Temp;Humidity;BMP_temperature;BMP_pressure;BME280_temperature;BME280_humidity;BME280_pressure;Samples;Min_cycle;Max_cycle;Signal;HPM_P1;HPM_P2
2022/03/04 00:01:51;;;;;;;;;0.00;0.00;;;;;10.09;74.01;100567.03;5040149;28;45304;-72
2022/03/04 00:04:17;;;;;;;;;1.00;0.00;;;;;10.11;75.02;100577.53;5040570;28;45479;-72
2022/03/04 00:06:42;;;;;;;;;0.50;0.50;;;;;10.13;75.10;100568.91;5040319;28;45249;-72
2022/03/04 00:09:08;;;;;;;;;0.00;0.00;;;;;10.13;75.42;100581.06;5040479;28;45342;-72
2022/03/04 00:11:34;;;;;;;;;0.00;0.00;;;;;10.12;75.15;100571.44;5040358;28;45359;-72
2022/03/04 00:14:00;;;;;;;;;0.00;0.00;;;;;10.11;75.43;100572.31;5040366;28;45228;-72
2022/03/04 00:16:26;;;;;;;;;0.00;0.00;;;;;9.98;74.69;100542.28;5040372;28;45166;-72
2022/03/04 00:19:06;;;;;;;;;0.00;0.00;;;;;10.02;75.92;100562.44;5039987;28;45245;-72
2022/03/04 00:21:41;;;;;;;;;0.00;0.00;;;;;10.12;75.79;100580.16;5040068;28;45585;-72
2022/03/04 00:24:08;;;;;;;;;0.00;0.00;;;;;10.17;75.71;100575.13;5040319;28;45401;-73
2022/03/04 00:26:34;;;;;;;;;0.00;0.00;;;;;10.22;76.05;100583.06;5039856;28;45469;-73
2022/03/04 00:29:00;;;;;;;;;0.67;0.00;;;;;10.24;75.89;100581.41;5039600;28;46130;-73
2022/03/04 00:31:26;;;;;;;;;0.00;0.00;;;;;10.20;75.65;100569.09;5039802;28;45551;-73
2022/03/04 00:33:51;;;;;;;;;0.67;0.00;;;;;10.25;75.89;100578.84;5039998;28;45482;-73
2022/03/04 00:36:17;;;;;;;;;0.00;0.00;;;;;10.20;76.68;100583.03;5040077;28;45438;-74
2022/03/04 00:38:43;;;;;;;;;1.00;0.00;;;;;10.25;76.24;100594.50;5039562;28;45657;-72
2022/03/04 00:41:08;;;;;;;;;0.00;0.00;;;;;10.23;75.92;100588.34;5039863;28;45308;-72
2022/03/04 00:43:34;;;;;;;;;0.00;0.00;;;;;10.13;75.71;100568.91;5039867;28;45544;-71
2022/03/04 00:46:00;;;;;;;;;1.00;0.00;;;;;10.29;76.00;100599.00;5039763;28;45500;-72
2022/03/04 00:48:26;;;;;;;;;2.00;0.00;;;;;10.30;75.73;100586.84;5039406;28;46559;-72
2022/03/04 00:50:51;;;;;;;;;0.00;0.00;;;;;10.19;75.58;100573.44;5039484;28;45446;-72
2022/03/04 00:53:18;;;;;;;;;0.00;0.00;;;;;10.34;75.49;100599.16;5039639;28;45479;-72
2022/03/04 00:55:44;;;;;;;;;0.00;0.00;;;;;10.29;75.34;100585.06;5039909;28;45360;-72
2022/03/04 00:58:09;;;;;;;;;0.00;0.00;;;;;10.25;75.32;100570.13;5039437;28;46186;-72
2022/03/04 01:00:35;;;;;;;;;1.00;0.00;;;;;10.34;75.60;100591.34;5039422;28;45453;-72
2022/03/04 01:03:03;;;;;;;;;2.00;0.00;;;;;10.33;75.35;100589.56;5039603;28;45227;-72
2022/03/04 01:05:29;;;;;;;;;0.00;0.00;;;;;10.10;75.56;100558.34;5039496;28;45447;-72
2022/03/04 01:07:54;;;;;;;;;0.00;0.00;;;;;10.20;75.97;100575.19;5038658;28;45576;-72
2022/03/04 01:10:20;;;;;;;;;0.75;0.00;;;;;10.27;75.85;100590.22;5039019;28;45508;-72
2022/03/04 01:12:46;;;;;;;;;0.00;0.00;;;;;10.31;75.06;100593.88;5039271;28;45253;-72
2022/03/04 01:15:12;;;;;;;;;3.00;0.00;;;;;10.14;75.36;100569.78;5039795;28;45424;-72
2022/03/04 01:17:38;;;;;;;;;1.00;0.00;;;;;10.36;75.18;100597.47;5039333;28;47028;-72
2022/03/04 01:20:05;;;;;;;;;0.00;0.00;;;;;10.30;75.23;100586.84;5039101;28;45470;-72
2022/03/04 01:22:30;;;;;;;;;1.00;0.00;;;;;10.33;75.20;100595.66;5039041;28;45323;-72
2022/03/04 01:24:56;;;;;;;;;0.00;0.00;;;;;10.34;75.49;100597.47;5038995;28;45379;-72
2022/03/04 01:27:21;;;;;;;;;0.67;0.00;;;;;10.34;75.59;100592.25;5038598;28;45326;-72
2022/03/04 01:29:47;;;;;;;;;1.00;0.00;;;;;10.35;75.26;100590.50;5039073;28;45403;-72
2022/03/04 01:32:12;;;;;;;;;1.00;0.33;;;;;10.42;75.21;100602.03;5039418;28;45268;-72
2022/03/04 01:34:38;;;;;;;;;1.00;0.00;;;;;10.34;75.28;100591.34;5039216;28;45294;-72
2022/03/04 01:37:06;;;;;;;;;1.00;0.00;;;;;10.40;75.47;100607.19;5038759;28;45457;-72
2022/03/04 01:39:32;;;;;;;;;1.00;0.00;;;;;10.38;75.29;100608.88;5038825;28;45311;-72
2022/03/04 01:41:57;;;;;;;;;1.00;0.00;;;;;10.20;74.84;100563.88;5038794;28;45288;-72
2022/03/04 01:44:23;;;;;;;;;0.33;0.00;;;;;10.37;74.42;100594.06;5039066;28;45234;-72
2022/03/04 01:46:49;;;;;;;;;2.00;0.00;;;;;10.28;74.60;100584.16;5038507;28;45299;-72
2022/03/04 01:49:15;;;;;;;;;1.00;0.00;;;;;10.31;74.95;100591.25;5039041;28;45739;-72
2022/03/04 01:51:40;;;;;;;;;1.00;0.00;;;;;10.38;75.11;100598.41;5038982;28;45510;-71
2022/03/04 01:54:06;;;;;;;;;2.33;0.00;;;;;10.42;75.34;100602.03;5038748;28;45410;-72
2022/03/04 01:56:32;;;;;;;;;2.00;0.00;;;;;10.40;75.16;100617.63;5038399;28;45308;-72
2022/03/04 01:58:58;;;;;;;;;0.33;0.00;;;;;10.34;74.47;100593.94;5038297;28;45472;-72
2022/03/04 02:01:23;;;;;;;;;1.00;0.00;;;;;10.30;74.75;100592.94;5038456;28;45460;-72
2022/03/04 02:03:49;;;;;;;;;0.33;0.00;;;;;10.23;74.41;100571.81;5038543;28;45302;-72
2022/03/04 02:06:15;;;;;;;;;0.00;0.00;;;;;10.40;74.50;100604.56;5038545;28;46408;-72
2022/03/04 02:08:42;;;;;;;;;1.00;0.00;;;;;10.22;74.72;100573.50;5038563;28;45437;-72
2022/03/04 02:11:07;;;;;;;;;1.00;0.00;;;;;10.35;74.82;100600.94;5038400;28;45224;-72
2022/03/04 02:13:34;;;;;;;;;1.33;0.00;;;;;10.33;75.21;100594.78;5038464;28;45343;-72
2022/03/04 02:16:00;;;;;;;;;2.00;0.00;;;;;10.21;74.72;100570.88;5037943;28;45365;-72
2022/03/04 02:18:26;;;;;;;;;0.00;0.00;;;;;10.31;74.49;100597.34;5037248;28;45588;-72
2022/03/04 02:20:53;;;;;;;;;0.00;0.00;;;;;10.38;74.79;100597.53;5038055;28;45491;-72
2022/03/04 02:23:20;;;;;;;;;0.25;0.00;;;;;10.40;74.63;100596.75;5038289;28;45469;-72
2022/03/04 02:25:48;;;;;;;;;0.00;0.00;;;;;10.40;74.51;100591.53;5037923;28;46123;-72
2022/03/04 02:28:15;;;;;;;;;0.00;0.00;;;;;10.38;74.23;100589.72;5038337;28;45477;-72
2022/03/04 02:30:41;;;;;;;;;1.00;0.00;;;;;10.38;74.29;100585.38;5038002;28;45479;-72
2022/03/04 02:33:08;;;;;;;;;1.00;0.00;;;;;10.43;74.38;100599.47;5038167;28;45509;-72
2022/03/04 02:35:34;;;;;;;;;0.33;0.00;;;;;10.39;73.67;100586.28;5037682;28;46489;-72
2022/03/04 02:38:01;;;;;;;;;0.00;0.00;;;;;10.40;73.97;100582.81;5037710;28;45490;-72
2022/03/04 02:40:27;;;;;;;;;3.67;0.67;;;;;10.35;74.15;100569.63;5037910;28;45471;-72
2022/03/04 02:42:53;;;;;;;;;1.33;0.00;;;;;10.45;73.96;100581.25;5038260;28;45394;-72
2022/03/04 02:45:18;;;;;;;;;2.33;0.33;;;;;10.38;74.26;100579.25;5037521;28;45228;-72
2022/03/04 02:47:44;;;;;;;;;0.00;0.00;;;;;10.42;73.91;100584.63;5037928;28;45276;-72
2022/03/04 02:50:11;;;;;;;;;0.33;0.00;;;;;10.46;73.87;100586.47;5037901;28;45433;-72
2022/03/04 02:52:36;;;;;;;;;1.67;1.00;;;;;10.45;73.85;100589.06;5037844;28;45224;-72
2022/03/04 02:55:03;;;;;;;;;1.67;1.00;;;;;10.44;74.30;100596.00;5037408;28;46077;-72
2022/03/04 02:57:28;;;;;;;;;0.00;0.00;;;;;10.34;74.72;100578.28;5037796;28;45389;-73
2022/03/04 02:59:54;;;;;;;;;0.00;0.00;;;;;10.37;74.64;100598.41;5037521;28;45550;-72
2022/03/04 03:02:19;;;;;;;;;0.00;0.00;;;;;10.22;74.80;100567.41;5037790;28;45335;-73
2022/03/04 03:04:45;;;;;;;;;0.00;0.00;;;;;10.39;74.03;100592.38;5037887;28;46023;-72
2022/03/04 03:07:11;;;;;;;;;0.00;0.00;;;;;10.39;74.21;100586.28;5037475;28;45256;-72
2022/03/04 03:09:37;;;;;;;;;0.00;0.00;;;;;10.41;72.71;100576.75;5037696;28;45518;-72
2022/03/04 03:12:02;;;;;;;;;0.00;0.00;;;;;10.13;74.63;100558.47;5037556;28;45386;-72
2022/03/04 03:14:28;;;;;;;;;3.67;0.00;;;;;10.38;74.90;100592.31;5037155;28;45469;-72
2022/03/04 03:16:54;;;;;;;;;1.00;0.00;;;;;10.20;74.89;100585.63;5037262;28;45218;-72
2022/03/04 03:19:19;;;;;;;;;0.00;0.00;;;;;10.18;74.97;100597.75;5037799;28;45422;-72
2022/03/04 03:21:45;;;;;;;;;0.67;0.00;;;;;10.16;74.06;100602.91;5037518;28;45366;-72
2022/03/04 03:24:10;;;;;;;;;0.00;0.00;;;;;10.16;73.77;100620.31;5037261;28;45243;-72
2022/03/04 03:26:36;;;;;;;;;0.00;0.00;;;;;10.20;74.06;100621.31;5037087;28;45545;-72
2022/03/04 03:29:02;;;;;;;;;1.00;0.00;;;;;10.20;73.81;100630.00;5037293;28;45456;-72
2022/03/04 03:31:27;;;;;;;;;1.00;0.00;;;;;10.03;73.97;100603.38;5037084;28;45392;-72
2022/03/04 03:33:53;;;;;;;;;1.67;0.00;;;;;9.79;73.80;100556.47;5037053;28;46395;-72
2022/03/04 03:36:20;;;;;;;;;0.00;0.00;;;;;10.07;74.05;100605.25;5035995;28;45338;-72
2022/03/04 03:38:46;;;;;;;;;0.00;0.00;;;;;10.20;74.05;100630.00;5036042;28;45533;-72
2022/03/04 03:41:11;;;;;;;;;0.00;0.00;;;;;10.01;74.09;100602.44;5037185;28;45490;-72
2022/03/04 03:43:38;;;;;;;;;0.00;0.00;;;;;10.16;74.21;100623.81;5036957;28;46654;-72
2022/03/04 03:46:04;;;;;;;;;1.25;0.00;;;;;10.09;73.94;100607.91;5036825;28;45498;-72
2022/03/04 03:48:30;;;;;;;;;0.33;0.00;;;;;10.03;73.51;100598.16;5036877;28;45311;-72
2022/03/04 03:50:55;;;;;;;;;0.00;0.00;;;;;10.22;73.92;100624.84;5037146;28;45331;-72
2022/03/04 03:53:21;;;;;;;;;1.00;0.00;;;;;10.15;74.34;100603.78;5037050;28;45538;-72
2022/03/04 03:55:46;;;;;;;;;0.00;0.00;;;;;10.26;74.27;100617.16;5036591;28;45226;-72
2022/03/04 03:58:12;;;;;;;;;0.00;0.00;;;;;10.24;73.75;100612.72;5036924;28;45470;-72
2022/03/04 04:00:38;;;;;;;;;0.00;0.00;;;;;10.28;73.96;100615.47;5036933;28;45438;-72
2022/03/04 04:03:03;;;;;;;;;3.00;2.00;;;;;10.26;74.39;100611.94;5035232;28;46730;-73
2022/03/04 04:05:29;;;;;;;;;0.00;0.00;;;;;10.11;73.89;100596.69;5036546;28;45323;-72
2022/03/04 04:07:55;;;;;;;;;2.00;0.00;;;;;10.15;74.54;100618.56;5036992;28;45548;-72
2022/03/04 04:10:20;;;;;;;;;1.00;0.00;;;;;10.21;74.17;100625.72;5035883;28;45317;-72
2022/03/04 04:12:46;;;;;;;;;0.00;0.00;;;;;10.15;73.86;100618.56;5036739;28;46471;-72
2022/03/04 04:15:12;;;;;;;;;0.00;0.00;;;;;10.15;74.20;100619.44;5035359;28;45415;-72
2022/03/04 04:17:37;;;;;;;;;0.00;0.00;;;;;10.16;74.54;100623.81;5036696;28;45281;-72
2022/03/04 04:20:03;;;;;;;;;0.00;0.00;;;;;9.81;74.22;100565.25;5036942;28;45502;-72
2022/03/04 04:22:29;;;;;;;;;1.00;1.00;;;;;10.28;74.32;100649.44;5036580;28;46178;-72
2022/03/04 04:24:54;;;;;;;;;1.00;0.00;;;;;10.28;74.37;100652.03;5036371;28;45358;-72
2022/03/04 04:27:20;;;;;;;;;0.00;0.00;;;;;10.24;74.30;100644.94;5036746;28;45473;-72
2022/03/04 04:29:45;;;;;;;;;1.00;0.00;;;;;10.25;74.16;100645.84;5036597;28;45418;-72
2022/03/04 04:32:11;;;;;;;;;1.00;0.00;;;;;10.23;74.39;100651.00;5036256;28;46142;-72
2022/03/04 04:34:37;;;;;;;;;1.00;0.00;;;;;10.28;73.58;100656.38;5036212;28;45470;-72
2022/03/04 04:37:03;;;;;;;;;0.00;0.00;;;;;10.25;73.97;100646.72;5036456;28;45427;-73
2022/03/04 04:39:28;;;;;;;;;0.00;0.00;;;;;10.23;73.86;100642.31;5036491;28;45401;-72
2022/03/04 04:41:54;;;;;;;;;1.33;1.00;;;;;10.22;73.62;100641.41;5037274;28;45355;-72
2022/03/04 04:44:19;;;;;;;;;2.00;1.00;;;;;10.22;73.62;100641.41;5039619;28;45472;-72
2022/03/04 04:46:45;;;;;;;;;1.67;0.00;;;;;10.25;74.08;100656.28;5039715;28;45194;-72
2022/03/04 04:49:10;;;;;;;;;0.00;0.00;;;;;10.23;73.85;100653.63;5039795;28;45269;-72
2022/03/04 04:51:36;;;;;;;;;0.67;0.00;;;;;10.22;73.31;100664.88;5038171;28;45495;-72
2022/03/04 04:54:02;;;;;;;;;2.00;0.00;;;;;10.03;74.49;100650.34;5039582;28;45434;-72
2022/03/04 04:56:27;;;;;;;;;1.67;0.00;;;;;10.09;74.53;100661.00;5039591;28;45509;-72
2022/03/04 04:58:53;;;;;;;;;0.00;0.00;;;;;10.01;73.85;100664.16;5040138;28;45232;-72
2022/03/04 05:01:18;;;;;;;;;0.00;0.00;;;;;9.84;73.79;100656.66;5039425;28;45584;-72
2022/03/04 05:03:44;;;;;;;;;0.00;0.00;;;;;9.92;73.60;100688.22;5039360;28;45407;-72
2022/03/04 05:06:10;;;;;;;;;1.00;0.00;;;;;9.46;73.72;100608.38;5039444;28;45383;-72
2022/03/04 05:08:35;;;;;;;;;0.00;0.00;;;;;9.93;74.03;100680.47;5038171;28;45409;-73
2022/03/04 05:11:01;;;;;;;;;0.67;0.00;;;;;9.94;74.05;100689.19;5038977;28;45409;-73
2022/03/04 05:13:26;;;;;;;;;1.00;0.00;;;;;9.92;74.39;100686.50;5039210;28;45525;-72
2022/03/04 05:15:52;;;;;;;;;0.67;0.00;;;;;9.94;74.60;100691.78;5039558;28;45347;-72
2022/03/04 05:18:17;;;;;;;;;0.00;0.00;;;;;9.96;74.51;100698.81;5039431;28;45498;-72
2022/03/04 05:20:44;;;;;;;;;0.00;0.00;;;;;9.94;74.47;100683.94;5038987;28;45518;-72
2022/03/04 05:23:09;;;;;;;;;0.00;0.00;;;;;9.94;74.53;100683.94;5039126;28;45429;-72
2022/03/04 05:25:36;;;;;;;;;1.00;0.00;;;;;9.72;74.28;100662.31;5038879;28;45280;-72
2022/03/04 05:28:02;;;;;;;;;1.00;0.00;;;;;9.84;74.68;100685.34;5039217;28;45484;-72
2022/03/04 05:30:28;;;;;;;;;0.00;0.00;;;;;9.82;74.44;100691.34;5038846;28;45490;-73
2022/03/04 05:32:53;;;;;;;;;0.00;0.00;;;;;9.83;74.65;100698.34;5038959;28;45378;-72
2022/03/04 05:35:19;;;;;;;;;0.00;0.00;;;;;9.83;74.98;100700.94;5039104;28;45449;-72
2022/03/04 05:37:45;;;;;;;;;6.00;5.75;;;;;9.83;74.54;100698.34;5039053;28;45331;-72
2022/03/04 05:40:11;;;;;;;;;10.75;10.50;;;;;9.81;75.10;100694.78;5038657;28;45474;-72
2022/03/04 05:42:37;;;;;;;;;2.25;2.00;;;;;9.89;74.92;100714.25;5038743;28;45304;-72
2022/03/04 05:45:03;;;;;;;;;4.75;4.75;;;;;9.84;74.51;100694.91;5038832;28;45323;-72
2022/03/04 05:47:29;;;;;;;;;21.50;19.50;;;;;9.75;74.75;100685.06;5038719;28;45295;-73
2022/03/04 05:49:54;;;;;;;;;9.00;8.75;;;;;9.96;74.52;100716.22;5037287;28;45492;-72
2022/03/04 05:52:20;;;;;;;;;3.00;2.75;;;;;9.92;74.69;100709.13;5038240;28;45548;-72
2022/03/04 05:54:46;;;;;;;;;1.67;1.00;;;;;9.96;75.04;100717.09;5038821;28;45433;-72
2022/03/04 05:57:12;;;;;;;;;3.75;3.50;;;;;9.94;75.03;100704.84;5038594;28;45415;-72
2022/03/04 05:59:37;;;;;;;;;77.25;57.75;;;;;10.01;74.59;100717.28;5036938;28;46383;-73
2022/03/04 06:02:03;;;;;;;;;29.50;27.00;;;;;10.02;74.53;100718.16;5038299;28;45457;-72
2022/03/04 06:04:29;;;;;;;;;3.50;2.75;;;;;10.01;74.51;100701.63;5038757;28;45461;-72
2022/03/04 06:06:54;;;;;;;;;2.00;2.00;;;;;10.00;74.45;100702.44;5038719;28;45493;-72
2022/03/04 06:09:21;;;;;;;;;1.00;1.00;;;;;9.91;74.24;100692.56;5038218;28;45622;-72
2022/03/04 06:11:47;;;;;;;;;0.00;0.00;;;;;9.96;75.41;100743.19;5038140;28;45373;-72
2022/03/04 06:14:12;;;;;;;;;3.75;1.00;;;;;9.82;75.42;100722.66;5038168;28;45489;-72
2022/03/04 06:16:38;;;;;;;;;1.75;0.75;;;;;9.82;75.71;100722.66;5038305;28;45405;-72
2022/03/04 06:19:04;;;;;;;;;0.00;0.00;;;;;9.73;75.45;100713.69;5038257;28;46171;-72
2022/03/04 06:21:30;;;;;;;;;0.00;0.00;;;;;9.72;75.15;100691.03;5038425;28;45317;-71
2022/03/04 06:23:55;;;;;;;;;3.00;2.25;;;;;9.86;73.89;100716.72;5038398;28;45349;-71
2022/03/04 06:26:21;;;;;;;;;0.67;0.00;;;;;9.94;75.04;100734.41;5038103;28;45426;-72
2022/03/04 06:28:47;;;;;;;;;0.00;0.00;;;;;9.41;75.20;100638.59;5037970;28;45360;-72
2022/03/04 06:31:13;;;;;;;;;1.00;0.00;;;;;9.95;74.40;100735.31;5037815;28;45208;-72
2022/03/04 06:33:40;;;;;;;;;1.00;0.50;;;;;9.96;74.84;100744.91;5037924;28;45543;-71
2022/03/04 06:36:07;;;;;;;;;0.00;0.00;;;;;9.96;75.21;100751.00;5038001;28;45441;-72
2022/03/04 06:38:35;;;;;;;;;2.00;0.00;;;;;9.95;75.05;100761.44;5037699;28;46078;-72
2022/03/04 06:41:01;;;;;;;;;3.00;1.75;;;;;9.82;75.00;100764.41;5037882;28;45458;-72
2022/03/04 06:43:27;;;;;;;;;0.75;0.75;;;;;9.87;75.07;100783.75;5037839;28;45541;-72
2022/03/04 06:45:53;;;;;;;;;3.00;2.00;;;;;9.61;74.87;100735.81;5037674;28;45189;-72
2022/03/04 06:48:21;;;;;;;;;3.25;3.00;;;;;9.75;74.68;100764.19;5037493;28;45435;-72
2022/03/04 06:50:48;;;;;;;;;0.75;0.00;;;;;9.63;73.08;100748.09;5037419;28;45474;-72
2022/03/04 06:53:13;;;;;;;;;2.75;1.75;;;;;9.71;72.68;100777.97;5037660;28;45435;-72
2022/03/04 06:55:39;;;;;;;;;3.00;3.00;;;;;9.59;73.09;100764.47;5037897;28;45436;-72
2022/03/04 06:58:05;;;;;;;;;28.50;26.50;;;;;9.62;72.83;100771.50;5037499;28;46147;-72
2022/03/04 07:00:30;;;;;;;;;5.00;4.50;;;;;9.59;73.83;100771.38;5037769;28;45447;-72
2022/03/04 07:02:56;;;;;;;;;6.00;4.00;;;;;9.61;73.58;100765.41;5037658;28;45726;-72
2022/03/04 07:05:22;;;;;;;;;9.25;8.75;;;;;9.72;72.49;100778.84;5037132;28;45228;-72
2022/03/04 07:07:49;;;;;;;;;16.50;15.25;;;;;9.69;72.40;100773.53;5037576;28;46062;-72
2022/03/04 07:10:15;;;;;;;;;9.75;8.25;;;;;9.83;71.81;100776.59;5037125;28;45208;-72
2022/03/04 07:12:40;;;;;;;;;2.75;2.25;;;;;9.76;71.49;100765.94;5035720;28;45530;-72
2022/03/04 07:15:07;;;;;;;;;0.50;0.00;;;;;9.80;71.08;100768.69;5037457;28;45322;-72
2022/03/04 07:17:33;;;;;;;;;0.75;0.00;;;;;9.78;71.03;100770.34;5037220;28;46592;-71
2022/03/04 07:19:59;;;;;;;;;4.25;4.00;;;;;9.74;71.36;100762.41;5037251;28;45240;-72
2022/03/04 07:22:25;;;;;;;;;5.00;4.25;;;;;9.71;71.75;100764.03;5035798;28;45515;-72
2022/03/04 07:24:50;;;;;;;;;4.75;2.75;;;;;9.91;72.62;100809.13;5037175;28;45548;-73
2022/03/04 07:27:16;;;;;;;;;1.25;1.00;;;;;9.79;72.97;100783.47;5036746;28;45522;-72
2022/03/04 07:29:42;;;;;;;;;2.25;2.00;;;;;9.83;73.47;100797.50;5035634;28;45358;-72
2022/03/04 07:32:07;;;;;;;;;0.75;0.00;;;;;9.83;72.78;100811.44;5037228;28;45329;-72
2022/03/04 07:34:34;;;;;;;;;1.50;1.00;;;;;9.76;73.54;100807.69;5037674;28;45409;-72
2022/03/04 07:36:59;;;;;;;;;8.00;5.50;;;;;9.81;74.00;100833.06;5036821;28;45318;-71
2022/03/04 07:39:25;;;;;;;;;9.50;9.50;;;;;9.82;73.91;100834.88;5036985;28;45415;-72
2022/03/04 07:41:51;;;;;;;;;69.25;56.25;;;;;9.66;73.58;100808.19;5037171;28;45327;-72
2022/03/04 07:44:18;;;;;;;;;16.75;16.75;;;;;9.66;73.07;100810.78;5037019;28;45521;-72
2022/03/04 07:46:44;;;;;;;;;9.50;8.75;;;;;9.73;72.81;100822.38;5036534;28;46340;-72
2022/03/04 07:49:09;;;;;;;;;5.00;5.00;;;;;9.78;72.45;100823.41;5036700;28;45372;-72
2022/03/04 07:51:35;;;;;;;;;3.00;2.00;;;;;9.82;71.96;100833.13;5037186;28;45358;-72
2022/03/04 07:54:01;;;;;;;;;1.00;1.00;;;;;9.90;72.55;100836.03;5037354;28;45250;-72
2022/03/04 07:56:27;;;;;;;;;2.00;1.00;;;;;9.95;72.05;100845.81;5036827;28;46406;-72
2022/03/04 07:58:52;;;;;;;;;4.00;3.00;;;;;9.97;73.54;100845.88;5036531;28;45546;-71
2022/03/04 08:01:18;;;;;;;;;4.00;1.50;;;;;10.14;71.85;100852.59;5036964;28;45431;-72
2022/03/04 08:03:45;;;;;;;;;2.75;2.50;;;;;10.10;72.33;100828.94;5037071;28;45341;-72
2022/03/04 08:06:10;;;;;;;;;5.75;5.00;;;;;10.30;72.43;100847.97;5036559;28;45667;-71
2022/03/04 08:08:36;;;;;;;;;4.25;3.50;;;;;10.35;71.44;100855.13;5035513;28;45295;-72
2022/03/04 08:11:02;;;;;;;;;18.00;15.50;;;;;10.37;71.55;100870.88;5037254;28;45796;-73
2022/03/04 08:13:28;;;;;;;;;2.00;1.25;;;;;10.42;71.75;100866.69;5036790;28;45232;-73
2022/03/04 08:15:53;;;;;;;;;7.50;6.00;;;;;10.41;72.21;100848.38;5036428;28;45535;-73
2022/03/04 08:18:19;;;;;;;;;16.25;13.00;;;;;10.08;72.09;100786.22;5039461;28;45434;-73
2022/03/04 08:20:45;;;;;;;;;3.00;3.00;;;;;10.46;71.37;100846.78;5038808;28;45412;-72
2022/03/04 08:23:11;;;;;;;;;7.00;6.75;;;;;10.68;72.02;100882.38;5038891;28;45403;-73
2022/03/04 08:25:41;;;;;;;;;0.00;0.00;;;;;10.70;71.00;100881.63;5040168;28;45524;-73
2022/03/04 08:28:06;;;;;;;;;1.67;1.00;;;;;10.57;71.73;100858.50;5040384;28;45423;-72
2022/03/04 08:30:32;;;;;;;;;0.00;0.00;;;;;10.79;71.97;100877.53;5039962;28;45315;-73
2022/03/04 08:32:59;;;;;;;;;3.25;2.50;;;;;10.94;71.54;100881.56;5040413;28;46144;-73
2022/03/04 08:35:25;;;;;;;;;2.33;1.00;;;;;11.21;71.10;100887.66;5039799;28;45520;-73
2022/03/04 08:37:52;;;;;;;;;2.00;2.00;;;;;11.65;70.47;100898.66;5039779;28;45370;-73
2022/03/04 08:40:18;;;;;;;;;2.00;1.00;;;;;11.87;69.44;100900.19;5038322;28;45334;-74
2022/03/04 08:42:44;;;;;;;;;1.67;1.33;;;;;11.94;68.24;100884.75;5038237;28;45560;-73
2022/03/04 08:45:11;;;;;;;;;19.50;17.75;;;;;12.17;67.28;100904.59;5038022;28;46548;-73
2022/03/04 08:47:38;;;;;;;;;2.00;2.00;;;;;12.32;67.02;100907.69;5039896;28;45245;-73
2022/03/04 08:50:05;;;;;;;;;2.67;2.00;;;;;12.45;66.79;100912.41;5040049;28;45556;-73
2022/03/04 08:52:32;;;;;;;;;4.00;2.67;;;;;12.59;66.80;100915.41;5040356;28;45384;-73
2022/03/04 08:54:57;;;;;;;;;4.67;4.00;;;;;12.94;66.17;100916.34;5039505;28;45574;-73
2022/03/04 08:57:23;;;;;;;;;2.00;2.00;;;;;13.90;64.08;100916.06;5039574;28;45446;-73
2022/03/04 08:59:48;;;;;;;;;2.00;1.00;;;;;13.77;61.28;100901.78;5037923;28;45517;-73
2022/03/04 09:02:14;;;;;;;;;6.00;4.00;;;;;13.49;63.52;100910.78;5039118;28;45303;-73
2022/03/04 09:04:39;;;;;;;;;2.00;2.00;;;;;13.43;62.68;100902.72;5039485;28;45359;-73
2022/03/04 09:07:06;;;;;;;;;2.00;1.00;;;;;13.58;61.88;100907.47;5039311;28;45418;-73
2022/03/04 09:09:33;;;;;;;;;2.00;1.33;;;;;13.85;60.67;100925.59;5039370;28;45500;-73
2022/03/04 09:11:58;;;;;;;;;4.00;2.00;;;;;14.07;59.24;100925.22;5039273;28;45343;-73
2022/03/04 09:14:24;;;;;;;;;6.00;4.33;;;;;17.76;53.29;100895.28;5038804;28;45431;-73
2022/03/04 09:16:51;;;;;;;;;9.33;8.33;;;;;21.99;42.44;100894.31;5038931;28;45418;-73
2022/03/04 09:19:16;;;;;;;;;4.00;2.00;;;;;24.03;39.01;100876.03;5039214;28;45548;-73
2022/03/04 09:21:42;;;;;;;;;5.00;3.33;;;;;24.98;35.47;100883.75;5039214;28;45455;-74
2022/03/04 09:24:08;;;;;;;;;7.67;6.67;;;;;22.98;38.99;100877.03;5039070;28;46519;-73
2022/03/04 09:26:33;;;;;;;;;10.00;7.00;;;;;21.56;40.23;100900.06;5038717;28;45485;-73
2022/03/04 09:28:59;;;;;;;;;7.00;6.00;;;;;19.89;41.49;100903.69;5038340;28;45426;-73
2022/03/04 09:31:24;;;;;;;;;2.00;2.00;;;;;18.54;43.43;100896.56;5039341;28;45513;-73
2022/03/04 09:33:50;;;;;;;;;8.00;7.33;;;;;17.90;44.72;100903.34;5038488;28;45589;-73
2022/03/04 09:36:16;;;;;;;;;4.67;3.00;;;;;17.47;45.68;100913.59;5038692;28;45735;-73
2022/03/04 09:38:42;;;;;;;;;1.33;1.00;;;;;17.30;46.19;100924.91;5039023;28;45485;-73
2022/03/04 09:41:08;;;;;;;;;1.00;1.00;;;;;17.25;44.75;100917.84;5039401;28;45502;-73
2022/03/04 09:43:34;;;;;;;;;1.33;1.00;;;;;20.30;41.24;100924.78;5038384;28;45477;-74
2022/03/04 09:46:00;;;;;;;;;0.67;0.00;;;;;19.93;40.21;100918.72;5038011;28;45228;-74
2022/03/04 09:48:26;;;;;;;;;2.67;2.00;;;;;20.79;40.72;100921.00;5038451;28;45505;-73
2022/03/04 09:50:52;;;;;;;;;1.67;1.00;;;;;22.38;37.99;100928.47;5037520;28;45319;-73
2022/03/04 09:53:19;;;;;;;;;3.00;1.33;;;;;22.89;32.69;100919.78;5038118;28;46215;-73
2022/03/04 09:55:45;;;;;;;;;2.00;0.00;;;;;22.01;36.71;100924.44;5038202;28;45392;-74
2022/03/04 09:58:16;;;;;;;;;2.67;1.00;;;;;20.79;38.88;100929.88;5038470;28;45520;-73
2022/03/04 10:00:46;;;;;;;;;3.00;1.00;;;;;19.75;40.48;100927.59;5038608;28;45570;-74
2022/03/04 10:03:22;;;;;;;;;2.33;1.00;;;;;19.07;41.18;100939.03;5037999;28;46211;-73
2022/03/04 10:05:52;;;;;;;;;2.67;1.33;;;;;19.25;41.65;100937.31;5037745;28;45522;-73
2022/03/04 10:08:19;;;;;;;;;2.00;1.00;;;;;18.92;41.67;100933.75;5038103;28;45209;-73
2022/03/04 10:10:53;;;;;;;;;2.00;0.33;;;;;18.67;42.65;100943.34;5037034;28;45465;-73
2022/03/04 10:13:39;;;;;;;;;2.00;1.00;;;;;18.79;41.82;100943.41;5037823;28;45632;-73
2022/03/04 10:16:05;;;;;;;;;0.67;0.67;;;;;20.74;37.89;100926.38;5033780;28;45281;-73
2022/03/04 10:18:31;;;;;;;;;21.00;18.33;;;;;21.99;37.18;100928.88;5037934;28;45490;-73
2022/03/04 10:20:56;;;;;;;;;2.33;1.00;;;;;22.70;35.11;100928.06;5038167;28;45453;-73
2022/03/04 10:23:24;;;;;;;;;1.00;1.00;;;;;22.40;35.09;100924.00;5037932;28;45412;-73
2022/03/04 10:25:56;;;;;;;;;4.00;3.33;;;;;22.21;35.16;100932.19;5037759;28;45417;-73
2022/03/04 10:28:24;;;;;;;;;2.00;0.00;;;;;22.34;34.40;100942.72;5038000;28;45372;-73
2022/03/04 10:30:51;;;;;;;;;1.67;1.00;;;;;22.80;34.66;100928.78;5037834;28;45473;-73
2022/03/04 10:33:19;;;;;;;;;1.00;1.00;;;;;22.84;33.18;100927.84;5037486;28;45311;-73
2022/03/04 10:35:46;;;;;;;;;1.33;0.67;;;;;22.99;33.89;100935.59;5038128;28;45669;-73
2022/03/04 10:38:24;;;;;;;;;1.67;1.00;;;;;22.55;34.41;100942.44;5037874;28;45303;-73
2022/03/04 10:40:51;;;;;;;;;1.00;1.00;;;;;21.78;35.63;100932.66;5036669;28;45317;-73
2022/03/04 10:43:25;;;;;;;;;3.00;1.33;;;;;21.03;36.80;100931.50;5037491;28;46149;-73
2022/03/04 10:46:04;;;;;;;;;2.00;1.00;;;;;20.59;38.49;100950.31;5037676;28;45506;-73
2022/03/04 10:48:30;;;;;;;;;1.33;0.00;;;;;20.27;37.58;100948.66;5037555;28;45473;-73
2022/03/04 10:50:59;;;;;;;;;2.33;1.00;;;;;19.60;38.90;100936.44;5037685;28;45314;-73
2022/03/04 10:53:27;;;;;;;;;4.00;3.00;;;;;18.98;37.95;100957.59;5037403;28;45399;-73
2022/03/04 10:56:06;;;;;;;;;2.67;2.00;;;;;18.30;39.53;100953.78;5037029;28;45560;-73
2022/03/04 10:58:34;;;;;;;;;3.00;3.00;;;;;17.82;39.87;100963.16;5037454;28;45438;-73
2022/03/04 11:01:05;;;;;;;;;9.67;6.33;;;;;18.58;39.98;100953.88;5037507;28;45375;-72
2022/03/04 11:03:33;;;;;;;;;3.33;3.00;;;;;19.66;37.81;100958.50;5036950;28;46548;-75
2022/03/04 11:06:02;;;;;;;;;1.33;1.00;;;;;20.70;35.03;100929.94;5036833;28;45435;-72
2022/03/04 11:08:28;;;;;;;;;1.00;1.00;;;;;21.96;35.41;100938.69;5037049;28;45352;-72
2022/03/04 11:10:55;;;;;;;;;2.00;1.00;;;;;22.78;33.21;100927.91;5037549;28;45261;-73
2022/03/04 11:13:23;;;;;;;;;4.00;3.00;;;;;22.08;32.91;100942.97;5036919;28;45370;-73
2022/03/04 11:15:50;;;;;;;;;2.00;1.00;;;;;20.64;36.05;100943.25;5036891;28;45299;-73
2022/03/04 11:18:18;;;;;;;;;2.00;1.00;;;;;19.71;37.42;100945.25;5035939;28;45400;-72
2022/03/04 11:20:47;;;;;;;;;1.00;1.00;;;;;18.97;37.67;100941.69;5037605;28;45555;-72
2022/03/04 11:23:25;;;;;;;;;2.00;1.00;;;;;19.03;36.91;100952.28;5036977;28;46458;-72